createdAt,value
2022-12-04T00:01:15.093Z,14.73
2022-12-04T00:03:43.148Z,14.33
2022-12-04T00:06:13.058Z,14.20
2022-12-04T00:08:40.977Z,15.00
2022-12-04T00:11:10.537Z,16.53
2022-12-04T00:13:40.864Z,15.90
2022-12-04T00:16:11.034Z,15.03
2022-12-04T00:18:38.978Z,12.70
2022-12-04T00:21:07.758Z,13.60
2022-12-04T00:23:36.448Z,15.90
2022-12-04T00:26:06.222Z,18.13
2022-12-04T00:28:35.275Z,14.47
2022-12-04T00:31:06.641Z,15.93
2022-12-04T00:33:35.482Z,18.83
2022-12-04T00:36:06.336Z,14.63
2022-12-04T00:38:34.244Z,14.53
2022-12-04T00:41:02.214Z,18.60
2022-12-04T00:43:31.968Z,15.70
2022-12-04T00:45:59.893Z,17.83
2022-12-04T00:48:28.995Z,17.53
2022-12-04T00:50:58.321Z,15.07
2022-12-04T00:53:26.051Z,13.67
2022-12-04T00:55:53.857Z,16.80
2022-12-04T00:58:21.563Z,16.30
2022-12-04T01:00:49.234Z,16.43
2022-12-04T01:03:17.129Z,16.23
2022-12-04T01:05:46.930Z,15.60
2022-12-04T01:08:14.742Z,15.00
2022-12-04T01:10:43.651Z,17.67
2022-12-04T01:13:11.375Z,21.63
2022-12-04T01:15:40.367Z,19.63
2022-12-04T01:18:08.560Z,17.23
2022-12-04T01:20:36.365Z,15.60
2022-12-04T01:23:05.747Z,16.33
2022-12-04T01:25:33.811Z,15.77
2022-12-04T01:28:01.521Z,15.63
2022-12-04T01:30:29.713Z,13.97
2022-12-04T01:32:57.512Z,15.53
2022-12-04T01:35:25.196Z,14.27
2022-12-04T01:37:52.947Z,15.93
2022-12-04T01:40:22.134Z,14.23
2022-12-04T01:42:53.834Z,15.53
2022-12-04T01:45:49.618Z,15.43
2022-12-04T01:48:23.951Z,14.97
2022-12-04T01:50:55.328Z,14.73
2022-12-04T01:53:23.096Z,14.27
2022-12-04T01:55:52.257Z,16.20
2022-12-04T01:58:25.005Z,15.10
2022-12-04T02:00:58.509Z,17.10
2022-12-04T02:03:26.869Z,15.50
2022-12-04T02:05:54.535Z,15.37
2022-12-04T02:08:22.747Z,15.73
2022-12-04T02:11:04.522Z,15.70
2022-12-04T02:13:37.981Z,17.47
2022-12-04T02:16:14.328Z,16.97
2022-12-04T02:18:52.503Z,15.07
2022-12-04T02:21:25.318Z,16.07
2022-12-04T02:24:13.600Z,17.40
2022-12-04T02:26:50.264Z,14.73
2022-12-04T02:29:29.175Z,16.03
2022-12-04T02:32:04.204Z,16.10
2022-12-04T02:34:41.686Z,16.63
2022-12-04T02:37:15.506Z,18.17
2022-12-04T02:39:47.286Z,18.20
2022-12-04T02:42:20.418Z,17.03
2022-12-04T02:44:54.763Z,17.37
2022-12-04T02:47:24.952Z,18.87
2022-12-04T02:49:56.771Z,14.37
2022-12-04T02:52:32.276Z,16.80
2022-12-04T02:55:08.362Z,17.83
2022-12-04T02:57:41.887Z,15.43
2022-12-04T03:00:12.408Z,15.30
2022-12-04T03:02:45.809Z,15.63
2022-12-04T03:05:16.710Z,18.90
2022-12-04T03:07:48.001Z,17.00
2022-12-04T03:10:19.851Z,17.07
2022-12-04T03:12:51.949Z,16.70
2022-12-04T03:15:27.742Z,17.13
2022-12-04T03:18:01.187Z,15.40
2022-12-04T03:20:32.026Z,14.93
2022-12-04T03:23:10.248Z,13.83
2022-12-04T03:25:44.479Z,13.97
2022-12-04T03:28:22.008Z,13.80
2022-12-04T03:30:59.655Z,14.80
2022-12-04T03:33:33.332Z,17.17
2022-12-04T03:36:05.184Z,16.33
2022-12-04T03:38:40.312Z,16.73
2022-12-04T03:41:14.992Z,15.63
2022-12-04T03:43:51.728Z,21.27
2022-12-04T03:46:29.106Z,16.37
2022-12-04T03:49:03.326Z,16.60
2022-12-04T03:51:36.007Z,17.00
2022-12-04T03:54:07.568Z,17.43
2022-12-04T03:56:40.740Z,16.17
2022-12-04T03:59:13.545Z,16.63
2022-12-04T04:01:46.050Z,17.73
2022-12-04T04:04:19.169Z,18.73
2022-12-04T04:06:54.966Z,18.83
2022-12-04T04:09:25.719Z,18.43
2022-12-04T04:11:58.606Z,17.57
2022-12-04T04:14:51.360Z,14.63
2022-12-04T04:17:43.057Z,16.40
2022-12-04T04:20:33.941Z,16.63
2022-12-04T04:23:24.349Z,16.43
2022-12-04T04:25:54.064Z,18.60
2022-12-04T04:28:30.808Z,16.57
2022-12-04T04:31:07.241Z,18.10
2022-12-04T04:33:47.064Z,15.30
2022-12-04T04:36:23.092Z,15.20
2022-12-04T04:39:00.955Z,16.10
2022-12-04T04:41:36.767Z,17.67
2022-12-04T04:44:12.854Z,16.87
2022-12-04T04:46:46.940Z,17.53
2022-12-04T04:49:17.625Z,15.23
2022-12-04T04:51:46.217Z,17.60
2022-12-04T04:54:17.085Z,17.33
2022-12-04T04:56:47.544Z,16.80
2022-12-04T04:59:16.291Z,20.50
2022-12-04T05:01:46.782Z,18.40
2022-12-04T05:04:16.021Z,16.77
2022-12-04T05:06:43.743Z,16.03
2022-12-04T05:09:13.709Z,18.27
2022-12-04T05:11:43.343Z,17.00
2022-12-04T05:14:11.057Z,17.67
2022-12-04T05:16:43.112Z,17.93
2022-12-04T05:19:28.151Z,16.73
2022-12-04T05:21:57.507Z,17.63
2022-12-04T05:24:25.183Z,18.87
2022-12-04T05:26:52.870Z,18.67
2022-12-04T05:29:20.807Z,17.83
2022-12-04T05:31:48.519Z,19.57
2022-12-04T05:34:16.242Z,16.97
2022-12-04T05:36:44.007Z,20.30
2022-12-04T05:39:13.045Z,19.73
2022-12-04T05:41:40.765Z,17.67
2022-12-04T05:44:08.423Z,17.80
2022-12-04T05:46:36.197Z,21.37
2022-12-04T05:49:03.900Z,17.27
2022-12-04T05:51:31.571Z,17.73
2022-12-04T05:53:59.252Z,18.23
2022-12-04T05:56:28.345Z,17.97
2022-12-04T05:58:56.055Z,16.83
2022-12-04T06:01:25.191Z,19.20
2022-12-04T06:03:53.078Z,19.27
2022-12-04T06:06:23.666Z,18.13
2022-12-04T06:08:54.451Z,17.77
2022-12-04T06:11:25.369Z,16.13
2022-12-04T06:13:55.078Z,17.87
2022-12-04T06:16:24.687Z,18.00
2022-12-04T06:18:54.016Z,15.47
2022-12-04T06:21:25.599Z,15.70
2022-12-04T06:23:53.997Z,15.37
2022-12-04T06:26:22.530Z,14.67
2022-12-04T06:28:50.261Z,16.43
2022-12-04T06:31:20.040Z,13.50
2022-12-04T06:33:48.121Z,15.70
2022-12-04T06:36:18.396Z,16.20
2022-12-04T06:38:46.501Z,15.00
2022-12-04T06:41:16.217Z,14.60
2022-12-04T06:43:44.124Z,16.27
2022-12-04T06:46:14.036Z,13.20
2022-12-04T06:48:43.421Z,12.17
2022-12-04T06:51:13.296Z,16.20
2022-12-04T06:53:41.301Z,17.03
2022-12-04T06:56:12.093Z,12.93
2022-12-04T06:58:39.840Z,14.33
2022-12-04T07:01:08.708Z,16.13
2022-12-04T07:03:36.771Z,16.97
2022-12-04T07:06:17.400Z,16.70
2022-12-04T07:08:47.174Z,21.43
2022-12-04T07:11:15.378Z,14.33
2022-12-04T07:13:43.777Z,14.83
2022-12-04T07:16:14.264Z,13.57
2022-12-04T07:18:42.231Z,15.60
2022-12-04T07:21:11.793Z,16.20
2022-12-04T07:23:40.957Z,16.80
2022-12-04T07:26:13.065Z,18.00
2022-12-04T07:28:41.879Z,17.60
2022-12-04T07:31:12.053Z,15.83
2022-12-04T07:33:40.085Z,19.17
2022-12-04T07:36:10.543Z,14.50
2022-12-04T07:38:38.368Z,15.30
2022-12-04T07:41:08.488Z,16.30
2022-12-04T07:43:36.274Z,18.88
2022-12-04T07:46:06.832Z,18.60
2022-12-04T07:48:34.980Z,20.30
2022-12-04T07:51:07.071Z,17.00
2022-12-04T07:53:36.013Z,16.23
2022-12-04T07:56:04.269Z,16.03
2022-12-04T07:58:34.250Z,17.13
2022-12-04T08:01:09.730Z,18.87
2022-12-04T08:03:40.943Z,21.40
2022-12-04T08:06:13.448Z,23.40
2022-12-04T08:08:41.261Z,22.60
2022-12-04T08:11:10.366Z,23.63
2022-12-04T08:13:39.627Z,20.03
2022-12-04T08:16:09.527Z,21.10
2022-12-04T08:18:37.372Z,25.03
2022-12-04T08:21:06.734Z,22.07
2022-12-04T08:23:35.181Z,26.13
2022-12-04T08:26:03.798Z,22.00
2022-12-04T08:28:32.852Z,21.67
2022-12-04T08:31:05.820Z,24.33
2022-12-04T08:33:35.179Z,22.23
2022-12-04T08:36:03.852Z,27.50
2022-12-04T08:38:31.642Z,23.07
2022-12-04T08:41:01.119Z,21.30
2022-12-04T08:43:28.880Z,25.47
2022-12-04T08:45:58.195Z,26.50
2022-12-04T08:48:27.947Z,23.00
2022-12-04T08:50:56.264Z,26.40
2022-12-04T08:53:24.655Z,23.07
2022-12-04T08:55:52.805Z,23.20
2022-12-04T08:58:21.038Z,26.70
2022-12-04T09:00:48.770Z,24.83
2022-12-04T09:03:18.368Z,22.43
2022-12-04T09:05:47.573Z,25.50
2022-12-04T09:08:16.918Z,21.87
2022-12-04T09:10:45.650Z,22.90
2022-12-04T09:13:13.313Z,26.13
2022-12-04T09:15:41.939Z,23.93
2022-12-04T09:18:10.857Z,25.10
2022-12-04T09:20:38.671Z,23.73
2022-12-04T09:23:07.891Z,25.47
2022-12-04T09:25:37.627Z,22.80
2022-12-04T09:28:06.066Z,23.50
2022-12-04T09:30:33.794Z,21.93
2022-12-04T09:33:07.808Z,26.33
2022-12-04T09:35:35.570Z,25.27
2022-12-04T09:38:03.213Z,23.87
2022-12-04T09:40:42.329Z,21.17
2022-12-04T09:43:20.828Z,24.07
2022-12-04T09:45:53.542Z,26.93
2022-12-04T09:48:23.516Z,25.93
2022-12-04T09:50:52.866Z,22.93
2022-12-04T09:53:24.371Z,18.87
2022-12-04T09:55:57.367Z,22.27
2022-12-04T09:58:29.578Z,22.00
2022-12-04T10:00:59.426Z,23.87
2022-12-04T10:03:31.338Z,24.80
2022-12-04T10:06:09.168Z,23.87
2022-12-04T10:08:40.553Z,22.37
2022-12-04T10:11:16.346Z,24.23
2022-12-04T10:14:11.415Z,20.90
2022-12-04T10:16:53.456Z,24.87
2022-12-04T10:19:31.523Z,20.83
2022-12-04T10:22:09.407Z,27.60
2022-12-04T10:24:43.165Z,26.13
2022-12-04T10:27:16.037Z,21.77
2022-12-04T10:29:54.984Z,22.40
2022-12-04T10:32:35.441Z,22.13
2022-12-04T10:35:24.882Z,27.57
2022-12-04T10:38:05.552Z,22.87
2022-12-04T10:40:54.092Z,22.63
2022-12-04T10:43:43.394Z,22.33
2022-12-04T10:46:22.852Z,21.20
2022-12-04T10:48:53.977Z,21.27
2022-12-04T10:51:25.296Z,19.20
2022-12-04T10:53:55.975Z,22.77
2022-12-04T10:56:39.257Z,24.73
2022-12-04T10:59:20.359Z,24.07
2022-12-04T11:01:51.677Z,24.20
2022-12-04T11:04:29.897Z,24.17
2022-12-04T11:07:05.274Z,20.07
2022-12-04T11:09:35.120Z,21.47
2022-12-04T11:12:09.156Z,23.37
2022-12-04T11:14:42.736Z,26.13
2022-12-04T11:17:23.187Z,22.93
2022-12-04T11:20:00.863Z,21.40
2022-12-04T11:22:29.095Z,25.13
2022-12-04T11:25:12.107Z,23.30
2022-12-04T11:27:40.737Z,23.17
2022-12-04T11:30:17.702Z,24.10
2022-12-04T11:32:47.725Z,25.93
2022-12-04T11:35:22.273Z,23.60
2022-12-04T11:37:59.653Z,25.43
2022-12-04T11:40:33.146Z,27.63
2022-12-04T11:43:09.349Z,23.80
2022-12-04T11:45:54.716Z,28.53
2022-12-04T11:48:31.281Z,23.37
2022-12-04T11:51:10.707Z,26.43
2022-12-04T11:53:54.287Z,23.93
2022-12-04T11:56:29.575Z,24.60
2022-12-04T11:59:29.942Z,25.90
2022-12-04T12:02:17.565Z,27.87
2022-12-04T12:05:00.840Z,30.23
2022-12-04T12:08:03.446Z,27.20
2022-12-04T12:10:48.084Z,30.83
2022-12-04T12:13:28.528Z,25.33
2022-12-04T12:16:18.339Z,27.23
2022-12-04T12:19:16.601Z,25.50
2022-12-04T12:21:56.167Z,24.13
2022-12-04T12:24:28.753Z,24.67
2022-12-04T12:27:09.751Z,26.33
2022-12-04T12:29:56.083Z,27.63
2022-12-04T12:32:46.013Z,32.07
2022-12-04T12:35:24.122Z,26.27
2022-12-04T12:37:54.812Z,25.40
2022-12-04T12:40:31.984Z,27.97
2022-12-04T12:43:05.952Z,28.40
2022-12-04T12:45:41.889Z,25.67
2022-12-04T12:48:20.791Z,28.77
2022-12-04T12:51:14.996Z,25.97
2022-12-04T12:53:49.336Z,27.47
2022-12-04T12:56:20.192Z,30.67
2022-12-04T12:58:52.747Z,27.97
2022-12-04T13:01:24.677Z,33.03
2022-12-04T13:03:58.443Z,26.60
2022-12-04T13:06:32.879Z,31.47
2022-12-04T13:09:11.978Z,35.67
2022-12-04T13:11:45.475Z,32.63
2022-12-04T13:14:15.221Z,33.93
2022-12-04T13:16:54.211Z,33.20
2022-12-04T13:19:27.445Z,29.20
2022-12-04T13:22:06.416Z,32.00
2022-12-04T13:25:04.152Z,35.13
2022-12-04T13:27:46.347Z,33.33
2022-12-04T13:30:20.251Z,33.13
2022-12-04T13:33:17.377Z,32.67
2022-12-04T13:36:15.416Z,51.30
2022-12-04T13:38:58.785Z,33.43
2022-12-04T13:41:28.650Z,30.50
2022-12-04T13:43:57.577Z,47.97
2022-12-04T13:46:34.200Z,47.37
2022-12-04T13:49:10.920Z,39.30
2022-12-04T13:51:49.129Z,34.10
2022-12-04T13:54:29.691Z,28.63
2022-12-04T13:57:10.549Z,38.50
2022-12-04T13:59:40.264Z,30.23
2022-12-04T14:02:24.887Z,31.60
2022-12-04T14:04:58.011Z,31.67
2022-12-04T14:07:29.966Z,30.63
2022-12-04T14:10:04.601Z,36.63
2022-12-04T14:12:36.195Z,36.13
2022-12-04T14:15:07.645Z,33.87
2022-12-04T14:17:37.510Z,42.23
2022-12-04T14:20:08.382Z,29.73
2022-12-04T14:22:44.852Z,32.80
2022-12-04T14:25:36.541Z,33.33
2022-12-04T14:28:15.977Z,28.93
2022-12-04T14:30:45.732Z,32.13
2022-12-04T14:33:20.161Z,30.27
2022-12-04T14:35:51.618Z,31.10
2022-12-04T14:38:22.659Z,37.37
2022-12-04T14:40:56.124Z,34.03
2022-12-04T14:43:26.868Z,34.27
2022-12-04T14:46:01.455Z,33.57
2022-12-04T14:48:36.777Z,36.77
2022-12-04T14:51:12.003Z,33.80
2022-12-04T14:53:47.166Z,32.77
2022-12-04T14:56:38.831Z,31.03
2022-12-04T14:59:08.338Z,35.53
2022-12-04T15:01:39.107Z,36.60
2022-12-04T15:04:14.932Z,36.43
2022-12-04T15:06:44.956Z,33.53
2022-12-04T15:09:47.341Z,28.47
2022-12-04T15:12:36.462Z,30.70
2022-12-04T15:15:13.900Z,30.23
2022-12-04T15:17:42.036Z,32.30
2022-12-04T15:20:17.938Z,33.23
2022-12-04T15:22:46.225Z,32.50
2022-12-04T15:25:20.360Z,32.67
2022-12-04T15:27:52.103Z,34.90
2022-12-04T15:30:22.404Z,31.80
2022-12-04T15:32:53.060Z,32.17
2022-12-04T15:35:26.494Z,40.13
2022-12-04T15:37:54.941Z,30.97
2022-12-04T15:40:26.603Z,38.80
2022-12-04T15:43:06.867Z,33.40
2022-12-04T15:45:34.915Z,31.87
2022-12-04T15:48:02.972Z,36.07
2022-12-04T15:50:31.825Z,33.40
2022-12-04T15:53:03.622Z,32.73
2022-12-04T15:55:34.275Z,34.57
2022-12-04T15:58:07.510Z,31.90
2022-12-04T16:00:37.807Z,31.90
2022-12-04T16:03:20.078Z,33.50
2022-12-04T16:05:49.085Z,31.00
2022-12-04T16:08:24.966Z,30.07
2022-12-04T16:11:01.030Z,32.60
2022-12-04T16:13:32.808Z,32.10
2022-12-04T16:16:01.049Z,27.63
2022-12-04T16:18:29.830Z,27.73
2022-12-04T16:20:57.673Z,30.70
2022-12-04T16:23:26.916Z,32.47
2022-12-04T16:25:54.648Z,30.33
2022-12-04T16:28:22.420Z,29.20
2022-12-04T16:30:53.549Z,30.60
2022-12-04T16:33:21.329Z,30.00
2022-12-04T16:35:49.122Z,31.03
2022-12-04T16:38:18.093Z,30.23
2022-12-04T16:40:46.794Z,29.63
2022-12-04T16:43:16.479Z,30.47
2022-12-04T16:45:47.969Z,31.13
2022-12-04T16:48:17.028Z,32.80
2022-12-04T16:50:46.008Z,33.63
2022-12-04T16:53:17.430Z,31.87
2022-12-04T16:55:46.976Z,37.77
2022-12-04T16:58:15.561Z,28.83
2022-12-04T17:00:44.745Z,29.37
2022-12-04T17:03:21.726Z,33.47
2022-12-04T17:05:49.502Z,29.00
2022-12-04T17:08:17.291Z,34.37
2022-12-04T17:10:45.377Z,33.37
2022-12-04T17:13:13.137Z,34.67
2022-12-04T17:15:40.862Z,31.73
2022-12-04T17:18:12.923Z,35.40
2022-12-04T17:20:45.365Z,33.80
2022-12-04T17:23:13.652Z,35.03
2022-12-04T17:25:41.561Z,33.60
2022-12-04T17:28:09.446Z,41.37
2022-12-04T17:30:37.209Z,31.93
2022-12-04T17:33:05.497Z,34.20
2022-12-04T17:35:33.350Z,36.37
2022-12-04T17:38:06.160Z,31.50
2022-12-04T17:40:34.355Z,33.40
2022-12-04T17:43:03.939Z,36.90
2022-12-04T17:45:31.744Z,36.03
2022-12-04T17:48:02.576Z,37.23
2022-12-04T17:50:36.184Z,35.30
2022-12-04T17:53:05.309Z,37.03
2022-12-04T17:55:35.358Z,34.40
2022-12-04T17:58:03.138Z,31.17
2022-12-04T18:00:31.010Z,33.63
2022-12-04T18:02:58.779Z,31.33
2022-12-04T18:05:26.532Z,30.30
2022-12-04T18:07:54.398Z,33.77
2022-12-04T18:10:27.889Z,32.20
2022-12-04T18:12:59.062Z,27.87
2022-12-04T18:15:26.798Z,33.20
2022-12-04T18:17:55.583Z,31.23
2022-12-04T18:20:23.277Z,30.93
2022-12-04T18:22:51.075Z,30.87
2022-12-04T18:25:18.961Z,29.97
2022-12-04T18:27:48.061Z,31.13
2022-12-04T18:30:16.053Z,30.27
2022-12-04T18:32:45.113Z,30.87
2022-12-04T18:35:12.807Z,28.77
2022-12-04T18:37:40.619Z,29.40
2022-12-04T18:40:09.659Z,29.87
2022-12-04T18:42:37.725Z,30.53
2022-12-04T18:45:07.866Z,30.17
2022-12-04T18:47:36.455Z,29.33
2022-12-04T18:50:04.318Z,30.43
2022-12-04T18:52:36.055Z,27.43
2022-12-04T18:55:03.809Z,35.00
2022-12-04T18:57:31.581Z,28.73
2022-12-04T18:59:59.486Z,29.13
2022-12-04T19:02:28.930Z,29.20
2022-12-04T19:04:56.828Z,29.33
2022-12-04T19:07:24.495Z,30.40
2022-12-04T19:10:21.954Z,30.63
2022-12-04T19:12:39.897Z,26.00
2022-12-04T19:15:08.376Z,28.80
2022-12-04T19:17:37.568Z,28.50
2022-12-04T19:20:10.899Z,31.70
2022-12-04T19:22:39.219Z,30.40
2022-12-04T19:25:08.453Z,30.00
2022-12-04T19:27:36.098Z,31.73
2022-12-04T19:30:03.752Z,31.57
2022-12-04T19:32:31.465Z,25.53
2022-12-04T19:35:00.499Z,30.37
2022-12-04T19:37:28.254Z,28.90
2022-12-04T19:39:59.311Z,29.67
2022-12-04T19:42:27.199Z,30.53
2022-12-04T19:44:54.863Z,26.97
2022-12-04T19:47:22.671Z,26.17
2022-12-04T19:49:50.518Z,28.47
2022-12-04T19:52:19.603Z,29.50
2022-12-04T19:54:47.372Z,25.27
2022-12-04T19:57:15.674Z,29.57
2022-12-04T19:59:46.651Z,28.57
2022-12-04T20:02:15.152Z,30.07
2022-12-04T20:04:43.188Z,29.60
2022-12-04T20:07:11.010Z,27.40
2022-12-04T20:09:40.239Z,30.27
2022-12-04T20:12:08.577Z,29.97
2022-12-04T20:14:36.263Z,29.73
2022-12-04T20:17:05.111Z,28.47
2022-12-04T20:19:33.004Z,32.70
2022-12-04T20:22:00.706Z,28.27
2022-12-04T20:24:28.642Z,31.87
2022-12-04T20:26:57.650Z,30.30
2022-12-04T20:29:25.389Z,30.60
2022-12-04T20:31:53.149Z,29.83
2022-12-04T20:34:21.027Z,32.50
2022-12-04T20:36:50.309Z,30.23
2022-12-04T20:39:19.677Z,27.93
2022-12-04T20:41:48.179Z,33.37
2022-12-04T20:44:19.683Z,30.90
2022-12-04T20:46:48.272Z,28.03
2022-12-04T20:49:21.592Z,30.40
2022-12-04T20:51:50.216Z,30.47
2022-12-04T20:54:20.308Z,30.30
2022-12-04T20:56:49.242Z,26.20
2022-12-04T20:59:20.253Z,33.77
2022-12-04T21:01:48.919Z,31.77
2022-12-04T21:04:18.528Z,29.53
2022-12-04T21:06:49.466Z,33.45
2022-12-04T21:09:19.766Z,29.60
2022-12-04T21:11:50.139Z,30.77
2022-12-04T21:14:38.142Z,34.83
2022-12-04T21:17:11.668Z,27.90
2022-12-04T21:19:39.661Z,32.03
2022-12-04T21:22:07.467Z,29.70
2022-12-04T21:24:38.787Z,33.15
2022-12-04T21:27:07.782Z,28.27
2022-12-04T21:29:37.235Z,28.70
2022-12-04T21:32:06.053Z,30.17
2022-12-04T21:34:34.431Z,33.87
2022-12-04T21:37:02.130Z,30.47
2022-12-04T21:39:29.918Z,30.90
2022-12-04T21:42:15.294Z,28.93
2022-12-04T21:44:44.293Z,30.67
2022-12-04T21:47:12.257Z,29.20
2022-12-04T21:49:39.973Z,29.07
2022-12-04T21:52:07.706Z,32.37
2022-12-04T21:54:35.368Z,32.43
2022-12-04T21:57:03.338Z,29.73
2022-12-04T21:59:31.329Z,28.57
2022-12-04T22:02:00.520Z,31.97
2022-12-04T22:04:28.463Z,28.03
2022-12-04T22:06:56.170Z,29.37
2022-12-04T22:09:25.996Z,31.40
2022-12-04T22:11:53.683Z,28.33
2022-12-04T22:14:21.410Z,29.53
2022-12-04T22:16:51.718Z,32.53
2022-12-04T22:19:21.015Z,31.80
2022-12-04T22:21:51.205Z,29.60
2022-12-04T22:24:18.845Z,25.57
2022-12-04T22:26:46.527Z,30.30
2022-12-04T22:29:48.620Z,30.90
2022-12-04T22:32:01.932Z,32.03
2022-12-04T22:34:31.089Z,31.30
2022-12-04T22:36:58.787Z,32.37
2022-12-04T22:39:26.693Z,34.27
2022-12-04T22:41:54.515Z,33.30
2022-12-04T22:44:22.266Z,31.67
2022-12-04T22:46:50.004Z,30.63
2022-12-04T22:49:17.813Z,31.00
2022-12-04T22:51:46.800Z,32.20
2022-12-04T22:54:18.207Z,29.80
2022-12-04T22:56:45.898Z,25.87
2022-12-04T22:59:13.629Z,28.50
2022-12-04T23:01:41.365Z,27.03
2022-12-04T23:04:09.099Z,29.77
2022-12-04T23:06:37.049Z,29.70
2022-12-04T23:09:08.951Z,33.33
2022-12-04T23:11:37.467Z,29.60
2022-12-04T23:14:09.187Z,29.83
2022-12-04T23:16:38.706Z,32.17
2022-12-04T23:19:07.509Z,28.43
2022-12-04T23:21:36.076Z,29.40
2022-12-04T23:24:04.045Z,31.53
2022-12-04T23:26:35.795Z,30.20
2022-12-04T23:29:05.335Z,30.23
2022-12-04T23:31:38.054Z,28.40
2022-12-04T23:34:07.154Z,27.27
2022-12-04T23:36:35.180Z,30.63
2022-12-04T23:39:02.866Z,30.67
2022-12-04T23:41:32.867Z,29.93
2022-12-04T23:44:00.503Z,29.00
2022-12-04T23:46:32.527Z,31.77
2022-12-04T23:49:01.186Z,28.43
2022-12-04T23:51:29.715Z,27.17
2022-12-04T23:53:57.708Z,32.47
2022-12-04T23:56:27.272Z,28.00
2022-12-04T23:58:58.398Z,31.87
